createdAt,value
2022-12-06T00:01:15.197Z,1.90
2022-12-06T00:03:43.465Z,1.90
2022-12-06T00:06:13.104Z,1.90
2022-12-06T00:08:40.419Z,1.80
2022-12-06T00:11:13.935Z,1.90
2022-12-06T00:13:42.022Z,1.90
2022-12-06T00:16:11.407Z,2.00
2022-12-06T00:18:39.682Z,1.90
2022-12-06T00:21:13.044Z,2.00
2022-12-06T00:23:44.856Z,1.90
2022-12-06T00:26:12.109Z,1.90
2022-12-06T00:28:39.381Z,1.90
2022-12-06T00:31:11.948Z,2.00
2022-12-06T00:33:38.615Z,2.00
2022-12-06T00:36:08.200Z,2.00
2022-12-06T00:38:36.396Z,1.90
2022-12-06T00:41:09.407Z,1.90
2022-12-06T00:43:36.970Z,1.90
2022-12-06T00:46:05.613Z,1.90
2022-12-06T00:48:32.826Z,1.90
2022-12-06T00:50:59.720Z,1.80
2022-12-06T00:53:28.043Z,1.90
2022-12-06T00:55:57.988Z,1.80
2022-12-06T00:58:25.011Z,1.80
2022-12-06T01:00:52.526Z,1.70
2022-12-06T01:03:19.403Z,1.70
2022-12-06T01:05:48.699Z,1.80
2022-12-06T01:08:16.773Z,1.80
2022-12-06T01:10:52.203Z,1.70
2022-12-06T01:13:19.051Z,1.70
2022-12-06T01:15:45.732Z,1.70
2022-12-06T01:18:12.585Z,1.70
2022-12-06T01:20:39.175Z,1.70
2022-12-06T01:23:05.772Z,1.70
2022-12-06T01:25:35.761Z,1.80
2022-12-06T01:28:04.148Z,1.80
2022-12-06T01:30:30.835Z,1.80
2022-12-06T01:32:57.480Z,1.80
2022-12-06T01:35:24.044Z,1.80
2022-12-06T01:37:50.615Z,1.80
2022-12-06T01:40:17.268Z,1.70
2022-12-06T01:42:43.878Z,1.80
2022-12-06T01:45:10.861Z,1.70
2022-12-06T01:47:41.522Z,1.70
2022-12-06T01:50:11.213Z,1.70
2022-12-06T01:52:49.796Z,1.70
2022-12-06T01:55:18.640Z,1.70
2022-12-06T01:57:46.088Z,1.70
2022-12-06T02:00:13.223Z,1.70
2022-12-06T02:02:40.013Z,1.70
2022-12-06T02:05:07.648Z,1.70
2022-12-06T02:07:34.626Z,1.70
2022-12-06T02:10:05.849Z,1.70
2022-12-06T02:12:32.511Z,1.70
2022-12-06T02:14:59.656Z,1.60
2022-12-06T02:17:40.998Z,1.70
2022-12-06T02:20:20.734Z,1.60
2022-12-06T02:23:23.892Z,1.60
2022-12-06T02:26:15.389Z,1.60
2022-12-06T02:29:01.671Z,1.60
2022-12-06T02:31:34.189Z,1.60
2022-12-06T02:34:07.088Z,1.60
2022-12-06T02:36:40.770Z,1.60
2022-12-06T02:39:24.413Z,1.60
2022-12-06T02:42:00.169Z,1.60
2022-12-06T02:44:33.355Z,1.60
2022-12-06T02:47:04.107Z,1.60
2022-12-06T02:49:33.386Z,1.60
2022-12-06T02:52:00.394Z,1.60
2022-12-06T02:54:28.059Z,1.60
2022-12-06T02:56:54.641Z,1.60
2022-12-06T02:59:21.690Z,1.60
2022-12-06T03:01:52.673Z,1.60
2022-12-06T03:04:54.549Z,1.60
2022-12-06T03:07:35.421Z,1.60
2022-12-06T03:10:40.797Z,1.70
2022-12-06T03:13:18.799Z,1.60
2022-12-06T03:16:06.986Z,1.60
2022-12-06T03:18:48.476Z,1.60
2022-12-06T03:21:29.292Z,1.60
2022-12-06T03:23:56.848Z,1.60
2022-12-06T03:26:27.701Z,1.70
2022-12-06T03:28:57.805Z,1.70
2022-12-06T03:31:26.644Z,1.60
2022-12-06T03:33:58.604Z,1.70
2022-12-06T03:36:27.126Z,1.70
2022-12-06T03:38:57.638Z,1.60
2022-12-06T03:41:29.092Z,1.70
2022-12-06T03:43:56.176Z,1.60
2022-12-06T03:46:35.014Z,1.70
2022-12-06T03:49:07.232Z,1.70
2022-12-06T03:51:35.203Z,1.70
2022-12-06T03:54:07.362Z,1.70
2022-12-06T03:56:36.703Z,1.70
2022-12-06T03:59:08.152Z,1.70
2022-12-06T04:01:35.018Z,1.70
2022-12-06T04:04:01.885Z,1.70
2022-12-06T04:06:28.641Z,1.70
2022-12-06T04:09:15.587Z,1.70
2022-12-06T04:11:42.397Z,1.70
2022-12-06T04:14:09.007Z,1.70
2022-12-06T04:16:54.185Z,1.70
2022-12-06T04:19:20.799Z,1.70
2022-12-06T04:22:05.849Z,1.70
2022-12-06T04:24:32.512Z,1.70
2022-12-06T04:27:19.065Z,1.70
2022-12-06T04:30:04.217Z,1.80
2022-12-06T04:32:49.571Z,1.80
2022-12-06T04:35:34.901Z,1.80
2022-12-06T04:38:20.328Z,1.70
2022-12-06T04:40:48.175Z,1.80
2022-12-06T04:43:33.356Z,1.80
2022-12-06T04:45:59.992Z,1.80
2022-12-06T04:48:26.593Z,1.80
2022-12-06T04:50:53.154Z,1.80
2022-12-06T04:53:19.803Z,1.80
2022-12-06T04:55:47.808Z,1.80
2022-12-06T04:58:15.601Z,1.80
2022-12-06T05:00:43.503Z,1.80
2022-12-06T05:03:14.621Z,1.80
2022-12-06T05:05:42.385Z,1.80
2022-12-06T05:08:10.077Z,1.80
2022-12-06T05:10:36.853Z,1.80
2022-12-06T05:13:04.152Z,1.80
2022-12-06T05:15:31.677Z,1.80
2022-12-06T05:17:58.289Z,1.80
2022-12-06T05:20:25.177Z,1.80
2022-12-06T05:22:51.771Z,1.80
2022-12-06T05:25:18.400Z,1.90
2022-12-06T05:27:44.995Z,1.80
2022-12-06T05:30:12.171Z,1.90
2022-12-06T05:32:40.184Z,1.90
2022-12-06T05:35:08.014Z,1.90
2022-12-06T05:37:34.636Z,1.90
2022-12-06T05:40:01.566Z,1.90
2022-12-06T05:42:28.365Z,1.90
2022-12-06T05:44:54.940Z,1.90
2022-12-06T05:47:21.490Z,1.90
2022-12-06T05:49:48.082Z,1.90
2022-12-06T05:52:14.688Z,2.00
2022-12-06T05:54:41.291Z,2.00
2022-12-06T05:57:07.881Z,2.00
2022-12-06T05:59:34.441Z,2.00
2022-12-06T06:02:01.132Z,2.00
2022-12-06T06:04:27.882Z,2.00
2022-12-06T06:06:54.566Z,2.00
2022-12-06T06:09:21.293Z,2.00
2022-12-06T06:11:48.011Z,2.00
2022-12-06T06:14:14.865Z,2.00
2022-12-06T06:16:41.585Z,2.00
2022-12-06T06:19:08.244Z,2.00
2022-12-06T06:21:34.831Z,2.00
2022-12-06T06:24:01.513Z,2.10
2022-12-06T06:26:28.141Z,2.10
2022-12-06T06:28:54.714Z,2.10
2022-12-06T06:31:21.740Z,2.10
2022-12-06T06:33:48.408Z,2.10
2022-12-06T06:36:14.988Z,2.10
2022-12-06T06:38:41.532Z,2.10
2022-12-06T06:41:08.257Z,2.10
2022-12-06T06:43:34.851Z,2.10
2022-12-06T06:46:03.692Z,2.20
2022-12-06T06:48:32.051Z,2.20
2022-12-06T06:51:07.137Z,2.20
2022-12-06T06:53:33.752Z,2.20
2022-12-06T06:56:00.368Z,2.20
2022-12-06T06:58:27.234Z,2.30
2022-12-06T07:00:55.553Z,2.20
2022-12-06T07:03:23.180Z,2.30
2022-12-06T07:06:10.425Z,2.30
2022-12-06T07:08:38.543Z,2.20
2022-12-06T07:11:06.006Z,2.30
2022-12-06T07:13:32.640Z,2.30
2022-12-06T07:15:59.342Z,2.30
2022-12-06T07:18:26.399Z,2.30
2022-12-06T07:21:07.952Z,2.30
2022-12-06T07:23:35.750Z,2.30
2022-12-06T07:26:07.976Z,2.40
2022-12-06T07:28:39.543Z,2.40
2022-12-06T07:31:11.148Z,2.40
2022-12-06T07:33:38.639Z,2.40
2022-12-06T07:36:14.085Z,2.40
2022-12-06T07:38:42.811Z,2.50
2022-12-06T07:41:31.716Z,2.50
2022-12-06T07:44:17.743Z,2.50
2022-12-06T07:46:44.989Z,2.50
2022-12-06T07:49:12.356Z,2.50
2022-12-06T07:51:40.081Z,2.50
2022-12-06T07:54:06.808Z,2.60
2022-12-06T07:56:33.514Z,2.60
2022-12-06T07:59:01.310Z,2.60
2022-12-06T08:01:28.675Z,2.60
2022-12-06T08:03:56.288Z,2.70
2022-12-06T08:06:23.382Z,2.70
2022-12-06T08:08:50.100Z,2.80
2022-12-06T08:11:16.923Z,2.80
2022-12-06T08:13:43.569Z,2.80
2022-12-06T08:16:12.983Z,2.80
2022-12-06T08:18:40.692Z,2.80
2022-12-06T08:21:08.248Z,2.90
2022-12-06T08:23:35.985Z,2.90
2022-12-06T08:26:05.966Z,3.00
2022-12-06T08:28:34.471Z,3.00
2022-12-06T08:31:19.228Z,3.00
2022-12-06T08:33:46.396Z,3.00
2022-12-06T08:36:16.132Z,3.10
2022-12-06T08:38:43.490Z,3.20
2022-12-06T08:41:30.782Z,3.20
2022-12-06T08:43:59.200Z,3.20
2022-12-06T08:46:26.898Z,3.30
2022-12-06T08:48:53.609Z,3.30
2022-12-06T08:51:20.407Z,3.30
2022-12-06T08:53:47.406Z,3.40
2022-12-06T08:56:14.506Z,3.30
2022-12-06T08:58:41.532Z,3.40
2022-12-06T09:01:17.330Z,3.40
2022-12-06T09:03:44.173Z,3.50
2022-12-06T09:06:11.224Z,3.40
2022-12-06T09:08:39.457Z,3.50
2022-12-06T09:11:07.844Z,3.50
2022-12-06T09:13:36.831Z,3.50
2022-12-06T09:16:12.600Z,3.50
2022-12-06T09:18:39.651Z,3.50
2022-12-06T09:21:07.706Z,3.50
2022-12-06T09:23:35.741Z,3.60
2022-12-06T09:26:03.264Z,3.60
2022-12-06T09:28:31.175Z,3.60
2022-12-06T09:30:58.089Z,3.70
2022-12-06T09:33:24.772Z,3.70
2022-12-06T09:35:51.877Z,3.70
2022-12-06T09:38:21.059Z,3.70
2022-12-06T09:41:05.679Z,3.70
2022-12-06T09:43:44.479Z,3.60
2022-12-06T09:46:48.524Z,3.60
2022-12-06T09:49:28.038Z,3.60
2022-12-06T09:52:12.701Z,3.70
2022-12-06T09:55:00.585Z,3.80
2022-12-06T09:57:49.101Z,3.80
2022-12-06T10:00:22.853Z,3.80
2022-12-06T10:03:20.388Z,3.80
2022-12-06T10:06:06.891Z,3.90
2022-12-06T10:08:57.791Z,3.90
2022-12-06T10:11:43.060Z,3.80
2022-12-06T10:14:26.890Z,3.90
2022-12-06T10:17:18.057Z,3.90
2022-12-06T10:20:04.589Z,3.90
2022-12-06T10:22:42.967Z,3.90
2022-12-06T10:25:23.711Z,3.90
2022-12-06T10:28:11.748Z,3.90
2022-12-06T10:30:52.460Z,3.90
2022-12-06T10:33:46.880Z,4.00
2022-12-06T10:36:19.680Z,4.00
2022-12-06T10:38:51.676Z,4.00
2022-12-06T10:41:18.414Z,4.00
2022-12-06T10:44:06.683Z,4.00
2022-12-06T10:47:07.212Z,4.00
2022-12-06T10:49:51.499Z,4.00
2022-12-06T10:52:42.903Z,4.00
2022-12-06T10:55:13.165Z,4.00
2022-12-06T10:57:49.130Z,4.00
2022-12-06T11:00:25.018Z,4.00
2022-12-06T11:03:03.311Z,4.10
2022-12-06T11:05:54.261Z,4.10
2022-12-06T11:08:33.144Z,4.10
2022-12-06T11:11:00.564Z,4.00
2022-12-06T11:13:54.137Z,4.10
2022-12-06T11:16:24.572Z,4.10
2022-12-06T11:18:51.594Z,4.10
2022-12-06T11:21:31.084Z,4.10
2022-12-06T11:24:35.326Z,4.10
2022-12-06T11:27:16.271Z,4.10
2022-12-06T11:29:44.380Z,4.10
2022-12-06T11:32:13.931Z,4.10
2022-12-06T11:34:51.708Z,4.10
2022-12-06T11:37:20.941Z,4.10
2022-12-06T11:39:51.708Z,4.10
2022-12-06T11:42:23.268Z,4.10
2022-12-06T11:45:08.572Z,4.10
2022-12-06T11:47:35.179Z,4.20
2022-12-06T11:50:08.480Z,4.20
2022-12-06T11:52:45.910Z,4.20
2022-12-06T11:55:18.572Z,4.20
2022-12-06T11:57:51.876Z,4.20
2022-12-06T12:00:22.560Z,4.20
2022-12-06T12:02:52.061Z,4.20
2022-12-06T12:05:25.774Z,4.20
2022-12-06T12:07:58.053Z,4.10
2022-12-06T12:10:30.765Z,4.20
2022-12-06T12:13:23.168Z,4.20
2022-12-06T12:15:53.042Z,4.10
2022-12-06T12:18:28.290Z,4.10
2022-12-06T12:20:57.777Z,4.20
2022-12-06T12:23:42.994Z,4.10
2022-12-06T12:26:18.704Z,4.20
2022-12-06T12:29:01.317Z,4.20
2022-12-06T12:31:28.005Z,4.20
2022-12-06T12:34:30.223Z,4.20
2022-12-06T12:37:02.739Z,4.20
2022-12-06T12:39:50.887Z,4.20
2022-12-06T12:42:28.455Z,4.30
2022-12-06T12:45:00.015Z,4.30
2022-12-06T12:47:27.835Z,4.30
2022-12-06T12:50:11.677Z,4.30
2022-12-06T12:52:41.252Z,4.40
2022-12-06T12:55:16.672Z,4.40
2022-12-06T12:57:45.972Z,4.50
2022-12-06T13:00:22.246Z,4.40
2022-12-06T13:03:01.644Z,4.40
2022-12-06T13:05:34.007Z,4.40
2022-12-06T13:08:26.246Z,4.40
2022-12-06T13:10:59.231Z,4.30
2022-12-06T13:13:44.440Z,4.30
2022-12-06T13:16:14.613Z,4.20
2022-12-06T13:18:51.199Z,4.30
2022-12-06T13:21:17.788Z,4.30
2022-12-06T13:23:45.656Z,4.30
2022-12-06T13:26:34.948Z,4.30
2022-12-06T13:29:07.359Z,4.30
2022-12-06T13:31:39.700Z,4.30
2022-12-06T13:34:41.583Z,4.30
2022-12-06T13:37:34.388Z,4.30
2022-12-06T13:40:02.612Z,4.30
2022-12-06T13:42:47.605Z,4.20
2022-12-06T13:45:46.906Z,4.20
2022-12-06T13:48:25.643Z,4.20
2022-12-06T13:50:58.984Z,4.20
2022-12-06T13:53:28.224Z,4.10
2022-12-06T13:56:23.147Z,4.10
2022-12-06T13:58:53.644Z,4.20
2022-12-06T14:01:42.721Z,4.10
2022-12-06T14:06:56.958Z,3.90
2022-12-06T14:09:25.658Z,3.80
2022-12-06T14:11:53.131Z,3.90
2022-12-06T14:14:22.473Z,3.80
2022-12-06T14:16:53.955Z,3.70
2022-12-06T14:19:31.139Z,3.80
2022-12-06T14:22:00.351Z,3.70
2022-12-06T14:24:29.398Z,3.70
2022-12-06T14:27:06.079Z,3.60
2022-12-06T14:29:33.004Z,3.60
2022-12-06T14:31:59.785Z,3.60
2022-12-06T14:34:29.136Z,3.60
2022-12-06T14:36:57.451Z,3.60
2022-12-06T14:39:30.015Z,3.50
2022-12-06T14:42:33.459Z,3.50
2022-12-06T14:45:02.644Z,3.50
2022-12-06T14:47:30.636Z,3.50
2022-12-06T14:50:18.928Z,3.50
2022-12-06T14:53:31.228Z,3.50
2022-12-06T14:56:02.336Z,3.50
2022-12-06T14:58:33.149Z,3.40
2022-12-06T15:01:06.382Z,3.40
2022-12-06T15:03:35.311Z,3.50
2022-12-06T15:06:18.666Z,3.50
2022-12-06T15:08:53.451Z,3.50
2022-12-06T15:11:53.641Z,3.50
2022-12-06T15:14:23.020Z,3.40
2022-12-06T15:17:01.805Z,3.40
2022-12-06T15:19:31.640Z,3.50
2022-12-06T15:21:58.430Z,3.50
2022-12-06T15:24:27.790Z,3.50
2022-12-06T15:26:55.045Z,3.50
2022-12-06T15:29:22.021Z,3.50
2022-12-06T15:31:54.138Z,3.50
2022-12-06T15:34:22.465Z,3.50
2022-12-06T15:36:49.387Z,3.50
2022-12-06T15:39:16.038Z,3.50
2022-12-06T15:41:43.281Z,3.50
2022-12-06T15:44:15.609Z,3.50
2022-12-06T15:46:42.951Z,3.40
2022-12-06T15:49:14.756Z,3.40
2022-12-06T15:51:42.351Z,3.40
2022-12-06T15:54:16.516Z,3.40
2022-12-06T15:56:43.161Z,3.40
2022-12-06T15:59:10.373Z,3.40
2022-12-06T16:01:44.770Z,3.40
2022-12-06T16:04:20.996Z,3.40
2022-12-06T16:06:47.668Z,3.50
2022-12-06T16:09:15.822Z,3.50
2022-12-06T16:11:42.756Z,3.50
2022-12-06T16:14:10.116Z,3.50
2022-12-06T16:16:43.077Z,3.50
2022-12-06T16:19:10.393Z,3.50
2022-12-06T16:21:51.324Z,3.50
2022-12-06T16:24:18.079Z,3.50
2022-12-06T16:26:45.609Z,3.50
2022-12-06T16:29:20.318Z,3.50
2022-12-06T16:31:47.651Z,3.50
2022-12-06T16:34:14.938Z,3.50
2022-12-06T16:36:57.599Z,3.50
2022-12-06T16:39:24.463Z,3.60
2022-12-06T16:41:51.156Z,3.60
2022-12-06T16:44:17.832Z,3.60
2022-12-06T16:46:45.482Z,3.60
2022-12-06T16:49:45.226Z,3.60
2022-12-06T16:52:06.729Z,3.60
2022-12-06T16:54:33.407Z,3.70
2022-12-06T16:57:00.001Z,3.70
2022-12-06T16:59:26.716Z,3.60
2022-12-06T17:01:54.923Z,3.60
2022-12-06T17:04:22.395Z,3.60
2022-12-06T17:06:49.222Z,3.60
2022-12-06T17:09:16.232Z,3.60
2022-12-06T17:12:01.376Z,3.60
2022-12-06T17:14:28.127Z,3.60
2022-12-06T17:16:55.844Z,3.50
2022-12-06T17:19:26.853Z,3.60
2022-12-06T17:21:53.509Z,3.60
2022-12-06T17:24:21.335Z,3.50
2022-12-06T17:26:48.306Z,3.60
2022-12-06T17:29:15.112Z,3.60
2022-12-06T17:31:42.644Z,3.60
2022-12-06T17:34:12.984Z,3.50
2022-12-06T17:36:40.469Z,3.50
2022-12-06T17:39:08.670Z,3.50
2022-12-06T17:41:53.940Z,3.40
2022-12-06T17:44:21.381Z,3.30
2022-12-06T17:46:47.992Z,3.30
2022-12-06T17:49:18.443Z,3.30
2022-12-06T17:51:45.283Z,3.20
2022-12-06T17:54:13.038Z,3.30
2022-12-06T17:56:42.604Z,3.30
2022-12-06T17:59:12.001Z,3.20
2022-12-06T18:02:06.602Z,3.20
2022-12-06T18:04:30.727Z,3.20
2022-12-06T18:06:58.189Z,3.10
2022-12-06T18:09:24.962Z,3.10
2022-12-06T18:11:51.680Z,3.10
2022-12-06T18:14:18.813Z,3.10
2022-12-06T18:16:46.540Z,3.00
2022-12-06T18:19:16.224Z,3.00
2022-12-06T18:21:43.300Z,3.00
2022-12-06T18:24:21.406Z,3.00
2022-12-06T18:26:48.523Z,3.00
2022-12-06T18:29:17.806Z,3.00
2022-12-06T18:31:44.582Z,3.00
2022-12-06T18:34:12.297Z,3.00
2022-12-06T18:36:39.429Z,3.00
2022-12-06T18:39:12.543Z,3.10
2022-12-06T18:41:41.174Z,3.20
2022-12-06T18:44:10.030Z,3.20
2022-12-06T18:46:38.605Z,3.20
2022-12-06T18:49:05.597Z,3.20
2022-12-06T18:51:34.975Z,3.20
2022-12-06T18:54:04.288Z,3.20
2022-12-06T18:56:32.060Z,3.20
2022-12-06T18:59:00.239Z,3.20
2022-12-06T19:01:29.684Z,3.30
2022-12-06T19:03:59.556Z,3.30
2022-12-06T19:06:28.948Z,3.20
2022-12-06T19:08:59.433Z,3.20
2022-12-06T19:11:26.068Z,3.10
2022-12-06T19:14:02.319Z,3.10
2022-12-06T19:16:43.812Z,3.00
2022-12-06T19:19:29.998Z,2.90
2022-12-06T19:21:59.432Z,2.90
2022-12-06T19:24:26.840Z,2.80
2022-12-06T19:26:57.876Z,2.80
2022-12-06T19:29:24.715Z,2.80
2022-12-06T19:31:51.714Z,2.80
2022-12-06T19:34:26.676Z,2.80
2022-12-06T19:36:54.815Z,2.70
2022-12-06T19:39:21.739Z,2.70
2022-12-06T19:42:06.805Z,2.70
2022-12-06T19:44:33.503Z,2.70
2022-12-06T19:47:00.315Z,2.60
2022-12-06T19:49:28.335Z,2.70
2022-12-06T19:51:55.328Z,2.60
2022-12-06T19:54:25.251Z,2.60
2022-12-06T19:56:53.518Z,2.60
2022-12-06T19:59:25.760Z,2.60
2022-12-06T20:01:54.130Z,2.60
2022-12-06T20:04:23.602Z,2.60
2022-12-06T20:06:52.352Z,2.60
2022-12-06T20:09:21.139Z,2.60
2022-12-06T20:12:03.719Z,2.60
2022-12-06T20:14:48.007Z,2.60
2022-12-06T20:17:17.329Z,2.60
2022-12-06T20:19:48.936Z,2.60
2022-12-06T20:22:17.494Z,2.60
2022-12-06T20:24:44.773Z,2.60
2022-12-06T20:27:11.572Z,2.60
2022-12-06T20:29:38.459Z,2.60
2022-12-06T20:32:05.532Z,2.60
2022-12-06T20:34:33.960Z,2.40
2022-12-06T20:37:05.352Z,2.50
2022-12-06T20:39:35.741Z,2.60
2022-12-06T20:42:05.224Z,2.60
2022-12-06T20:44:32.071Z,2.60
2022-12-06T20:46:59.215Z,2.60
2022-12-06T20:49:25.938Z,2.60
2022-12-06T20:51:53.631Z,2.60
2022-12-06T20:54:21.109Z,2.60
2022-12-06T20:56:51.180Z,2.60
2022-12-06T20:59:17.884Z,2.50
2022-12-06T21:01:44.698Z,2.50
2022-12-06T21:04:15.723Z,2.60
2022-12-06T21:06:42.620Z,2.70
2022-12-06T21:09:09.621Z,2.70
2022-12-06T21:11:36.825Z,2.80
2022-12-06T21:14:04.604Z,2.80
2022-12-06T21:16:33.318Z,2.80
2022-12-06T21:19:08.311Z,2.90
2022-12-06T21:21:38.003Z,2.90
2022-12-06T21:24:07.412Z,2.90
2022-12-06T21:26:34.641Z,3.00
2022-12-06T21:29:01.583Z,3.10
2022-12-06T21:31:36.026Z,3.10
2022-12-06T21:34:03.729Z,3.20
2022-12-06T21:36:30.347Z,3.20
2022-12-06T21:38:58.071Z,3.30
2022-12-06T21:41:25.281Z,3.30
2022-12-06T21:43:51.966Z,3.30
2022-12-06T21:46:21.760Z,3.40
2022-12-06T21:48:56.586Z,3.40
2022-12-06T21:51:25.222Z,3.40
2022-12-06T21:53:52.184Z,3.50
2022-12-06T21:56:21.538Z,3.50
2022-12-06T21:58:49.087Z,3.60
2022-12-06T22:01:21.455Z,3.60
2022-12-06T22:03:49.903Z,3.70
2022-12-06T22:06:17.044Z,3.70
2022-12-06T22:08:44.995Z,3.70
2022-12-06T22:11:17.039Z,3.80
2022-12-06T22:13:44.499Z,3.80
2022-12-06T22:16:12.631Z,3.80
2022-12-06T22:18:44.927Z,3.90
2022-12-06T22:21:19.283Z,3.90
2022-12-06T22:23:46.683Z,3.90
2022-12-06T22:26:19.764Z,3.90
2022-12-06T22:28:47.511Z,3.90
2022-12-06T22:31:22.689Z,4.00
2022-12-06T22:33:51.533Z,4.00
2022-12-06T22:36:19.828Z,4.00
2022-12-06T22:38:57.409Z,4.10
2022-12-06T22:41:24.820Z,4.10
2022-12-06T22:43:53.757Z,4.10
2022-12-06T22:46:21.148Z,4.10
2022-12-06T22:48:48.526Z,4.10
2022-12-06T22:51:16.547Z,4.10
2022-12-06T22:53:45.008Z,4.10
2022-12-06T22:56:12.480Z,4.10
2022-12-06T22:58:39.578Z,4.10
2022-12-06T23:01:18.388Z,4.10
2022-12-06T23:03:46.805Z,4.10
2022-12-06T23:06:15.762Z,4.10
2022-12-06T23:08:43.235Z,4.20
2022-12-06T23:11:18.825Z,4.20
2022-12-06T23:13:45.591Z,4.20
2022-12-06T23:16:17.763Z,4.20
2022-12-06T23:18:44.757Z,4.20
2022-12-06T23:21:19.138Z,4.20
2022-12-06T23:23:47.917Z,4.20
2022-12-06T23:26:17.522Z,4.20
2022-12-06T23:28:45.322Z,4.20
2022-12-06T23:31:20.138Z,4.20
2022-12-06T23:33:47.574Z,4.20
2022-12-06T23:36:17.392Z,4.20
2022-12-06T23:38:44.568Z,4.20
2022-12-06T23:41:20.310Z,4.20
2022-12-06T23:43:47.523Z,4.20
2022-12-06T23:46:21.807Z,4.20
2022-12-06T23:48:49.341Z,4.20
2022-12-06T23:51:19.747Z,4.20
2022-12-06T23:53:50.585Z,4.30
2022-12-06T23:56:18.820Z,4.20
2022-12-06T23:58:46.874Z,4.30
